createdAt,value
2023-04-11T00:00:35.132Z,2.85
2023-04-11T00:05:50.051Z,2.25
2023-04-11T00:11:05.119Z,3.47
2023-04-11T00:16:20.156Z,2.05
2023-04-11T00:21:35.571Z,3.67
2023-04-11T00:26:51.069Z,3.50
2023-04-11T00:32:06.382Z,4.05
2023-04-11T00:37:22.147Z,2.38
2023-04-11T00:42:38.467Z,1.92
2023-04-11T00:47:54.110Z,2.17
2023-04-11T00:53:09.131Z,3.67
2023-04-11T00:58:24.065Z,3.33
2023-04-11T01:03:38.994Z,4.07
2023-04-11T01:08:54.171Z,2.95
2023-04-11T01:14:09.195Z,4.55
2023-04-11T01:19:24.074Z,6.50
2023-04-11T01:24:39.084Z,2.67
2023-04-11T01:29:54.050Z,4.60
2023-04-11T01:35:09.117Z,4.75
2023-04-11T01:40:24.115Z,6.95
2023-04-11T01:45:38.847Z,5.03
2023-04-11T01:50:54.130Z,4.32
2023-04-11T01:56:09.354Z,5.07
2023-04-11T02:01:25.156Z,5.78
2023-04-11T02:06:40.101Z,5.47
2023-04-11T02:11:55.078Z,4.40
2023-04-11T02:17:10.081Z,5.28
2023-04-11T02:22:25.164Z,6.22
2023-04-11T02:27:40.098Z,5.60
2023-04-11T02:32:55.457Z,5.47
2023-04-11T02:38:11.465Z,6.63
2023-04-11T02:43:27.452Z,4.78
2023-04-11T02:48:42.837Z,5.28
2023-04-11T02:53:58.119Z,3.95
2023-04-11T02:59:14.118Z,8.05
2023-04-11T03:04:29.185Z,7.53
2023-04-11T03:09:52.153Z,7.43
2023-04-11T03:15:07.083Z,5.05
2023-04-11T03:20:22.135Z,4.25
2023-04-11T03:25:37.130Z,4.22
2023-04-11T03:30:53.091Z,5.35
2023-04-11T03:36:07.925Z,7.85
2023-04-11T03:41:24.177Z,4.93
2023-04-11T03:46:40.165Z,7.05
2023-04-11T03:51:55.167Z,6.97
2023-04-11T03:57:11.141Z,10.00
2023-04-11T04:02:26.310Z,7.57
2023-04-11T04:07:47.509Z,8.98
2023-04-11T04:13:19.096Z,9.35
2023-04-11T04:18:43.101Z,10.90
2023-04-11T04:23:58.335Z,11.45
2023-04-11T04:29:36.089Z,11.48
2023-04-11T04:34:52.135Z,12.55
2023-04-11T04:40:09.905Z,11.63
2023-04-11T04:45:33.081Z,11.10
2023-04-11T04:50:48.962Z,9.52
2023-04-11T04:56:04.188Z,15.20
2023-04-11T05:01:22.132Z,14.50
2023-04-11T05:06:40.084Z,10.93
2023-04-11T05:11:55.391Z,8.20
2023-04-11T05:17:12.430Z,10.18
2023-04-11T05:22:28.160Z,8.77
2023-04-11T05:27:43.093Z,11.43
2023-04-11T05:33:01.918Z,7.82
2023-04-11T05:38:17.074Z,7.55
2023-04-11T08:06:36.934Z,6.07
2023-04-11T08:09:06.962Z,5.85
2023-04-11T08:11:35.810Z,5.20
2023-04-11T08:14:05.244Z,5.35
2023-04-11T08:16:34.867Z,6.72
2023-04-11T08:19:03.745Z,4.40
2023-04-11T08:21:32.924Z,5.95
2023-04-11T08:24:02.278Z,4.60
2023-04-11T08:26:32.542Z,5.30
2023-04-11T08:29:02.889Z,5.68
2023-04-11T08:31:33.202Z,6.80
2023-04-11T08:34:06.152Z,5.32
2023-04-11T08:36:37.335Z,5.00
2023-04-11T08:39:07.652Z,5.85
2023-04-11T08:41:37.357Z,4.25
2023-04-11T08:44:06.861Z,4.97
2023-04-11T08:46:36.444Z,4.90
2023-04-11T08:49:04.498Z,3.22
2023-04-11T08:51:33.197Z,3.42
2023-04-11T08:54:03.576Z,4.45
2023-04-11T08:56:33.558Z,3.75
2023-04-11T08:59:03.192Z,4.40
2023-04-11T09:01:33.436Z,4.60
2023-04-11T09:04:02.260Z,6.25
2023-04-11T09:06:32.509Z,3.92
2023-04-11T09:09:02.469Z,4.65
2023-04-11T09:11:31.487Z,4.82
2023-04-11T09:14:00.260Z,4.93
2023-04-11T09:16:30.573Z,5.85
2023-04-11T09:19:00.876Z,3.60
2023-04-11T09:21:31.231Z,5.40
2023-04-11T09:24:01.640Z,3.30
2023-04-11T09:26:31.771Z,4.50
2023-04-11T09:29:00.178Z,2.65
2023-04-11T09:31:29.250Z,3.42
2023-04-11T09:33:59.964Z,4.53
2023-04-11T09:36:30.441Z,6.47
2023-04-11T09:39:00.193Z,3.40
2023-04-11T09:41:29.507Z,2.65
2023-04-11T09:43:59.182Z,3.65
2023-04-11T09:46:28.696Z,2.88
2023-04-11T09:48:59.298Z,3.03
2023-04-11T09:51:36.369Z,2.40
2023-04-11T09:54:06.644Z,3.90
2023-04-11T09:56:37.093Z,3.33
2023-04-11T09:59:06.126Z,2.72
2023-04-11T10:01:36.737Z,3.72
2023-04-11T10:04:07.189Z,3.30
2023-04-11T10:06:37.474Z,2.95
2023-04-11T10:09:07.317Z,2.53
2023-04-11T10:11:39.754Z,3.65
2023-04-11T10:14:09.079Z,3.50
2023-04-11T10:16:39.481Z,3.42
2023-04-11T10:19:09.660Z,2.65
2023-04-11T10:21:39.387Z,3.03
2023-04-11T10:24:08.833Z,3.45
2023-04-11T10:26:38.233Z,3.28
2023-04-11T10:29:08.440Z,2.47
2023-04-11T10:31:38.776Z,2.33
2023-04-11T10:34:09.184Z,4.28
2023-04-11T10:36:39.462Z,2.30
2023-04-11T10:39:09.829Z,3.08
2023-04-11T10:41:39.680Z,3.17
2023-04-11T10:44:10.030Z,3.05
2023-04-11T10:46:40.117Z,4.43
2023-04-11T10:49:08.850Z,4.38
2023-04-11T10:51:39.528Z,2.00
2023-04-11T10:54:08.996Z,2.38
2023-04-11T10:56:38.545Z,2.83
2023-04-11T10:59:07.416Z,2.88
2023-04-11T11:01:42.914Z,2.63
2023-04-11T11:04:18.948Z,1.90
2023-04-11T11:06:56.680Z,2.35
2023-04-11T11:09:27.677Z,2.03
2023-04-11T11:11:58.015Z,3.55
2023-04-11T11:14:27.956Z,1.92
2023-04-11T11:16:56.772Z,2.22
2023-04-11T11:19:27.076Z,2.30
2023-04-11T11:21:57.294Z,2.03
2023-04-11T11:24:27.145Z,3.30
2023-04-11T11:26:56.482Z,2.40
2023-04-11T11:29:26.409Z,2.35
2023-04-11T11:31:55.406Z,3.60
2023-04-11T11:34:24.763Z,2.83
2023-04-11T11:36:55.182Z,3.70
2023-04-11T11:39:25.187Z,2.55
2023-04-11T11:41:53.772Z,2.65
2023-04-11T11:44:22.237Z,1.65
2023-04-11T11:46:50.850Z,2.70
2023-04-11T11:49:21.068Z,2.58
2023-04-11T11:51:51.294Z,2.53
2023-04-11T11:54:21.870Z,1.42
2023-04-11T11:56:51.696Z,3.13
2023-04-11T11:59:20.566Z,1.38
2023-04-11T12:01:50.004Z,2.55
2023-04-11T12:04:20.436Z,2.63
2023-04-11T12:06:50.814Z,5.15
2023-04-11T12:09:20.606Z,3.28
2023-04-11T12:11:49.963Z,2.55
2023-04-11T12:14:19.920Z,3.40
2023-04-11T12:16:49.170Z,2.15
2023-04-11T12:19:17.892Z,3.33
2023-04-11T12:21:48.195Z,2.08
2023-04-11T12:24:18.472Z,2.38
2023-04-11T12:27:05.551Z,2.30
2023-04-11T12:29:36.763Z,3.20
2023-04-11T12:32:05.415Z,2.97
2023-04-11T12:34:35.436Z,2.42
2023-04-11T12:37:03.714Z,3.05
2023-04-11T12:39:33.069Z,2.15
2023-04-11T12:42:03.332Z,1.77
2023-04-11T12:44:33.542Z,1.73
2023-04-11T12:47:03.892Z,2.97
2023-04-11T12:49:34.254Z,3.58
2023-04-11T12:52:04.114Z,1.40
2023-04-11T12:54:33.478Z,2.75
2023-04-11T12:57:03.365Z,2.83
2023-04-11T12:59:33.027Z,3.78
2023-04-11T13:02:03.574Z,1.77
2023-04-11T13:04:34.016Z,3.30
2023-04-11T13:07:04.532Z,2.95
2023-04-11T13:09:34.590Z,2.88
2023-04-11T13:12:02.514Z,1.85
2023-04-11T13:14:31.258Z,3.50
2023-04-11T13:17:00.640Z,2.45
2023-04-11T13:19:30.633Z,1.52
2023-04-11T13:21:59.399Z,1.38
2023-04-11T13:24:29.762Z,3.03
2023-04-11T13:27:00.056Z,4.20
2023-04-11T13:29:29.881Z,1.63
2023-04-11T13:31:59.357Z,2.15
2023-04-11T13:34:29.699Z,2.13
2023-04-11T13:37:00.077Z,2.38
2023-04-11T13:39:30.470Z,3.15
2023-04-11T13:42:00.711Z,2.15
2023-04-11T13:44:31.049Z,2.45
2023-04-11T13:47:00.555Z,2.75
2023-04-11T13:49:30.531Z,2.65
2023-04-11T13:52:00.043Z,2.65
2023-04-11T13:54:29.071Z,2.25
2023-04-11T13:56:59.593Z,3.60
2023-04-11T13:59:28.675Z,2.13
2023-04-11T14:01:58.091Z,3.53
2023-04-11T14:04:28.589Z,1.90
2023-04-11T14:06:57.824Z,1.75
2023-04-11T14:09:26.628Z,3.65
2023-04-11T14:11:57.109Z,3.17
2023-04-11T14:14:26.530Z,2.25
2023-04-11T14:16:57.013Z,1.27
2023-04-11T14:19:26.415Z,2.05
2023-04-11T14:21:56.704Z,1.60
2023-04-11T14:24:26.570Z,2.55
2023-04-11T14:26:55.659Z,1.63
2023-04-11T14:29:24.087Z,2.40
2023-04-11T14:31:52.453Z,1.55
2023-04-11T14:34:22.782Z,2.13
2023-04-11T14:36:53.049Z,2.72
2023-04-11T14:39:23.462Z,3.33
2023-04-11T14:41:53.281Z,2.40
2023-04-11T14:44:23.590Z,3.00
2023-04-11T14:46:53.937Z,2.33
2023-04-11T14:49:23.295Z,1.98
2023-04-11T14:51:54.160Z,3.92
2023-04-11T14:54:23.597Z,1.48
2023-04-11T14:56:52.907Z,2.75
2023-04-11T14:59:22.800Z,2.33
2023-04-11T15:01:52.566Z,2.35
2023-04-11T15:04:22.410Z,2.13
2023-04-11T15:06:51.459Z,2.28
2023-04-11T15:09:20.961Z,1.58
2023-04-11T15:11:51.331Z,3.70
2023-04-11T15:14:21.798Z,2.30
2023-04-11T15:16:51.696Z,1.92
2023-04-11T15:19:21.101Z,2.70
2023-04-11T15:21:51.180Z,2.25
2023-04-11T15:24:20.198Z,2.42
2023-04-11T15:26:50.501Z,1.65
2023-04-11T15:29:20.426Z,1.73
2023-04-11T15:31:50.840Z,2.15
2023-04-11T15:34:21.355Z,3.08
2023-04-11T15:36:50.344Z,1.55
2023-04-11T15:39:19.385Z,2.45
2023-04-11T15:41:48.043Z,2.15
2023-04-11T15:44:18.330Z,2.70
2023-04-11T15:46:49.548Z,1.48
2023-04-11T15:49:19.884Z,1.67
2023-04-11T15:51:50.279Z,3.22
2023-04-11T15:54:20.518Z,1.42
2023-04-11T15:56:50.899Z,1.38
2023-04-11T15:59:21.220Z,2.65
2023-04-11T16:01:51.170Z,2.40
2023-04-11T16:04:20.553Z,1.90
2023-04-11T16:06:50.980Z,2.03
2023-04-11T16:09:21.039Z,2.15
2023-04-11T16:11:49.772Z,1.63
2023-04-11T16:14:20.175Z,1.33
2023-04-11T16:16:48.813Z,1.48
2023-04-11T16:19:18.234Z,1.50
2023-04-11T16:21:48.508Z,2.25
2023-04-11T16:24:18.046Z,1.50
2023-04-11T16:26:46.784Z,2.40
2023-04-11T16:29:17.126Z,1.42
2023-04-11T16:31:47.661Z,2.53
2023-04-11T16:34:17.214Z,2.53
2023-04-11T16:36:47.767Z,2.40
2023-04-11T16:39:17.610Z,2.65
2023-04-11T16:41:46.482Z,1.92
2023-04-11T16:44:18.460Z,2.22
2023-04-11T16:46:48.162Z,2.72
2023-04-11T16:49:16.861Z,3.40
2023-04-11T16:51:47.007Z,2.30
2023-04-11T16:54:15.338Z,2.78
2023-04-11T16:56:44.740Z,3.20
2023-04-11T16:59:15.133Z,2.58
2023-04-11T17:01:43.874Z,3.30
2023-04-11T17:04:13.677Z,2.65
2023-04-11T17:06:42.540Z,2.45
2023-04-11T17:09:12.875Z,3.35
2023-04-11T17:11:43.178Z,4.07
2023-04-11T17:14:13.297Z,2.70
2023-04-11T17:16:45.364Z,2.13
2023-04-11T17:19:14.286Z,2.75
2023-04-11T17:21:43.661Z,2.05
2023-04-11T17:24:13.691Z,2.10
2023-04-11T17:26:41.996Z,3.95
2023-04-11T17:29:10.835Z,2.97
2023-04-11T17:31:40.237Z,3.10
2023-04-11T17:34:10.609Z,3.92
2023-04-11T17:36:40.932Z,2.20
